Time;durP1;ratioP1;P1;durP2;ratioP2;P2;SDS_P1;SDS_P2;PMS_P1;PMS_P2;Temp;Humidity;BMP_temperature;BMP_pressure;BME280_temperature;BME280_humidity;BME280_pressure;Samples;Min_cycle;Max_cycle;Signal;HPM_P1;HPM_P2
2021/10/25 00:00:41;;;;;;;;;29.75;28.75;;;;;13.74;54.96;101413.47;2091586;28;48637;-49
2021/10/25 00:01:42;;;;;;;;;28.75;28.50;;;;;13.73;55.11;101413.50;2091327;28;47027;-50
2021/10/25 00:02:42;;;;;;;;;28.25;28.00;;;;;13.72;54.84;101407.28;2091375;28;48002;-50
2021/10/25 00:03:43;;;;;;;;;31.25;28.00;;;;;13.71;54.91;101404.63;2082333;28;47178;-48
2021/10/25 00:04:43;;;;;;;;;30.00;27.50;;;;;13.70;55.14;101413.53;2076770;28;46183;-49
2021/10/25 00:05:44;;;;;;;;;27.75;27.25;;;;;13.69;55.14;101411.78;2090067;28;48107;-51
2021/10/25 00:06:44;;;;;;;;;27.00;24.00;;;;;13.68;55.00;101413.59;2091687;28;45298;-52
2021/10/25 00:07:45;;;;;;;;;26.75;24.75;;;;;13.67;55.13;101406.50;2090972;28;48352;-47
2021/10/25 00:08:46;;;;;;;;;27.50;25.50;;;;;13.66;54.99;101404.75;2091562;28;47100;-50
2021/10/25 00:09:46;;;;;;;;;30.25;28.50;;;;;13.65;55.00;101403.00;2090121;28;46795;-49
2021/10/25 00:10:47;;;;;;;;;28.75;24.75;;;;;13.64;54.88;101408.38;2089947;28;46972;-50
2021/10/25 00:11:47;;;;;;;;;30.50;26.00;;;;;13.62;55.29;101405.75;2091351;28;45409;-53
2021/10/25 00:12:48;;;;;;;;;22.25;22.25;;;;;13.62;55.01;101403.06;2091583;28;47218;-49
2021/10/25 00:13:48;;;;;;;;;29.75;29.00;;;;;13.60;55.22;101399.56;2086542;28;47969;-49
2021/10/25 00:14:49;;;;;;;;;26.50;26.50;;;;;13.60;55.12;101402.25;2091697;28;47149;-51
2021/10/25 00:15:49;;;;;;;;;25.50;23.50;;;;;13.60;55.12;101407.56;2091226;28;47485;-48
2021/10/25 00:16:50;;;;;;;;;31.25;29.25;;;;;13.59;55.42;101403.13;2091556;28;47325;-53
2021/10/25 00:17:51;;;;;;;;;24.50;23.75;;;;;13.59;55.32;101404.91;2090771;28;47093;-47
2021/10/25 00:18:51;;;;;;;;;21.50;21.25;;;;;13.59;55.08;101399.56;2091630;28;48131;-50
2021/10/25 00:19:52;;;;;;;;;22.75;22.75;;;;;13.57;54.99;101399.63;2091430;28;45971;-51
2021/10/25 00:20:53;;;;;;;;;28.00;25.40;;;;;13.56;55.24;101403.19;2089693;28;47370;-51
2021/10/25 00:21:53;;;;;;;;;18.25;17.50;;;;;13.56;55.20;101400.53;2082303;28;47055;-49
2021/10/25 00:22:55;;;;;;;;;19.75;19.25;;;;;13.54;55.08;101400.56;2077524;28;47131;-51
2021/10/25 00:23:55;;;;;;;;;22.80;22.80;;;;;13.54;54.92;101400.56;2091379;28;45597;-49
2021/10/25 00:24:56;;;;;;;;;24.25;23.75;;;;;13.54;54.98;101402.38;2091497;28;47385;-49
2021/10/25 00:25:57;;;;;;;;;20.75;20.25;;;;;13.53;54.81;101392.59;2091302;28;47314;-49
2021/10/25 00:26:57;;;;;;;;;23.00;21.75;;;;;13.53;54.98;101395.28;2091632;28;47986;-51
2021/10/25 00:27:58;;;;;;;;;22.75;21.75;;;;;13.52;54.95;101391.75;2082396;28;45453;-49
2021/10/25 00:28:58;;;;;;;;;20.75;20.75;;;;;13.51;55.14;101392.66;2082519;28;47233;-49
2021/10/25 00:29:59;;;;;;;;;20.75;19.50;;;;;13.51;54.98;101389.09;2091001;28;47320;-49
2021/10/25 00:30:59;;;;;;;;;25.00;22.25;;;;;13.50;54.93;101388.22;2091425;28;47093;-48
2021/10/25 00:32:00;;;;;;;;;22.00;22.00;;;;;13.50;54.91;101390.91;2091299;28;47920;-49
2021/10/25 00:33:00;;;;;;;;;24.50;23.00;;;;;13.49;55.14;101383.81;2082176;28;47517;-50
2021/10/25 00:34:02;;;;;;;;;17.75;17.75;;;;;13.49;55.16;101380.28;2074090;28;48130;-49
2021/10/25 00:35:03;;;;;;;;;26.00;25.00;;;;;13.49;54.92;101377.59;2082367;28;47104;-51
2021/10/25 00:36:03;;;;;;;;;21.40;20.80;;;;;13.47;55.00;101380.31;2090762;28;47535;-50
2021/10/25 00:37:04;;;;;;;;;22.00;22.00;;;;;13.47;54.99;101382.09;2091224;28;48307;-52
2021/10/25 00:38:04;;;;;;;;;21.25;21.25;;;;;13.46;54.89;101375.84;2082158;28;47217;-49
2021/10/25 00:39:05;;;;;;;;;21.75;20.50;;;;;13.46;54.80;101375.84;2082404;28;48127;-50
2021/10/25 00:40:07;;;;;;;;;20.50;19.75;;;;;13.46;54.94;101377.66;2087541;28;47168;-49
2021/10/25 00:41:08;;;;;;;;;23.00;20.60;;;;;13.45;54.97;101376.78;2091093;28;48104;-51
2021/10/25 00:42:08;;;;;;;;;23.20;21.60;;;;;13.45;54.88;101373.22;2082756;28;45510;-51
2021/10/25 00:43:09;;;;;;;;;20.25;19.00;;;;;13.45;55.09;101370.56;2084009;28;47332;-49
2021/10/25 00:44:10;;;;;;;;;18.75;18.00;;;;;13.44;54.97;101360.81;2086898;28;48285;-51
2021/10/25 00:45:11;;;;;;;;;20.50;20.50;;;;;13.43;54.91;101370.59;2092734;28;47335;-50
2021/10/25 00:46:11;;;;;;;;;20.50;20.50;;;;;13.45;54.96;101373.22;2093434;28;45414;-52
2021/10/25 00:47:12;;;;;;;;;21.25;20.00;;;;;13.44;54.82;101364.34;2090716;28;47290;-49
2021/10/25 00:48:12;;;;;;;;;20.25;20.25;;;;;13.44;54.74;101366.16;2091445;28;48170;-49
2021/10/25 00:49:13;;;;;;;;;20.25;19.00;;;;;13.44;54.87;101368.81;2091026;28;48311;-50
2021/10/25 00:50:14;;;;;;;;;22.25;22.25;;;;;13.43;54.87;101365.28;2091462;28;48058;-50
2021/10/25 00:51:15;;;;;;;;;23.40;22.40;;;;;13.43;54.91;101364.41;2091124;28;48223;-48
2021/10/25 00:52:16;;;;;;;;;22.75;20.25;;;;;13.43;54.57;101362.59;2091382;28;47090;-50
2021/10/25 00:53:16;;;;;;;;;20.80;20.00;;;;;13.42;54.57;101359.97;2090956;28;47495;-48
2021/10/25 00:54:18;;;;;;;;;25.75;23.25;;;;;13.41;54.90;101367.09;2091388;28;48758;-49
2021/10/25 00:55:19;;;;;;;;;20.40;20.40;;;;;13.42;54.82;101373.31;2091039;28;46062;-51
2021/10/25 00:56:20;;;;;;;;;20.40;20.40;;;;;13.42;54.91;101359.97;2091452;28;47110;-49
2021/10/25 00:57:20;;;;;;;;;23.50;21.75;;;;;13.43;54.83;101364.41;2091155;28;45036;-49
2021/10/25 00:58:21;;;;;;;;;19.50;19.50;;;;;13.42;54.83;101368.84;2082324;28;47191;-47
2021/10/25 00:59:21;;;;;;;;;19.75;19.00;;;;;13.43;54.78;101367.94;2082189;28;48218;-48
2021/10/25 01:00:24;;;;;;;;;22.25;22.00;;;;;13.43;54.70;101367.06;2082369;28;47051;-51
2021/10/25 01:01:25;;;;;;;;;22.20;20.40;;;;;13.44;54.58;101363.47;2082424;28;48295;-50
2021/10/25 01:02:25;;;;;;;;;21.60;19.00;;;;;13.44;54.73;101363.47;2091031;28;47128;-48
2021/10/25 01:03:26;;;;;;;;;21.25;20.25;;;;;13.43;54.65;101362.59;2091054;28;47047;-47
2021/10/25 01:04:27;;;;;;;;;19.25;19.25;;;;;13.44;54.71;101360.81;2090220;28;47210;-50
2021/10/25 01:05:29;;;;;;;;;22.00;21.60;;;;;13.45;54.80;101368.78;2079552;28;48344;-47
2021/10/25 01:06:30;;;;;;;;;19.60;19.60;;;;;13.46;54.69;101372.31;2082228;28;48168;-48
2021/10/25 01:07:30;;;;;;;;;20.00;20.00;;;;;13.47;54.58;101368.78;2082219;28;47449;-48
2021/10/25 01:08:35;;;;;;;;;25.25;22.75;;;;;13.46;54.42;101367.88;2082064;28;47362;-51
2021/10/25 01:09:36;;;;;;;;;23.60;19.20;;;;;13.46;54.49;101365.19;2088552;28;47103;-49
2021/10/25 01:10:36;;;;;;;;;17.25;17.25;;;;;13.46;54.51;101370.53;2088673;28;48042;-51
2021/10/25 01:11:37;;;;;;;;;21.25;21.00;;;;;13.45;54.36;101374.09;2090737;28;47548;-50
2021/10/25 01:12:39;;;;;;;;;20.40;19.20;;;;;13.45;54.42;101365.25;2082260;28;47555;-50
2021/10/25 01:13:40;;;;;;;;;19.60;18.60;;;;;13.45;54.45;101376.78;2071981;28;46380;-52
2021/10/25 01:14:40;;;;;;;;;22.20;20.20;;;;;13.46;54.45;101377.66;2081791;28;48348;-48
2021/10/25 01:15:41;;;;;;;;;21.25;20.75;;;;;13.46;54.58;101385.66;2083265;28;48352;-51
2021/10/25 01:16:42;;;;;;;;;21.50;20.00;;;;;13.47;54.27;101387.44;2092558;28;48064;-52
2021/10/25 01:17:43;;;;;;;;;21.50;21.00;;;;;13.49;54.34;101388.28;2083235;28;47200;-54
2021/10/25 01:18:45;;;;;;;;;19.00;18.40;;;;;13.49;54.45;101381.16;2083669;28;48196;-49
2021/10/25 01:19:45;;;;;;;;;24.00;22.60;;;;;13.50;54.25;101380.22;2087978;28;45396;-47
2021/10/25 01:20:46;;;;;;;;;22.50;21.50;;;;;13.52;54.51;101375.72;2092622;28;47355;-49
2021/10/25 01:21:47;;;;;;;;;23.50;23.25;;;;;13.53;54.34;101379.28;2092590;28;45623;-48
2021/10/25 01:22:47;;;;;;;;;21.75;21.75;;;;;13.54;54.43;101381.91;2087079;28;47926;-47
2021/10/25 01:23:50;;;;;;;;;21.75;20.75;;;;;13.54;54.23;101378.38;2083471;28;47333;-49
2021/10/25 01:24:53;;;;;;;;;21.00;19.40;;;;;13.54;54.21;101376.56;2081238;28;47327;-47
2021/10/25 01:25:55;;;;;;;;;22.00;22.00;;;;;13.55;54.27;101378.31;2085326;28;47492;-50
2021/10/25 01:26:56;;;;;;;;;22.00;20.40;;;;;13.57;54.21;101377.41;2086862;28;45194;-48
2021/10/25 01:27:57;;;;;;;;;22.80;22.20;;;;;13.55;54.10;101378.31;2092534;28;47325;-49
2021/10/25 01:28:58;;;;;;;;;21.80;21.00;;;;;13.58;54.24;101381.81;2092548;28;47378;-48
2021/10/25 01:29:58;;;;;;;;;21.00;21.00;;;;;13.57;54.04;101375.63;2083622;28;45184;-51
2021/10/25 01:30:59;;;;;;;;;24.00;20.75;;;;;13.58;54.23;101382.69;2083540;28;48124;-49
2021/10/25 01:31:59;;;;;;;;;22.00;20.75;;;;;13.58;53.99;101384.50;2088555;28;47963;-49
2021/10/25 01:33:00;;;;;;;;;18.50;18.00;;;;;13.58;53.96;101381.81;2083411;28;48126;-51
2021/10/25 01:34:02;;;;;;;;;20.50;19.50;;;;;13.57;54.04;101388.06;2083508;28;48226;-52
2021/10/25 01:35:04;;;;;;;;;19.80;19.20;;;;;13.57;53.86;101386.28;2091678;28;47649;-48
2021/10/25 01:36:05;;;;;;;;;20.80;18.00;;;;;13.58;54.22;101390.69;2092584;28;48315;-50
2021/10/25 01:37:07;;;;;;;;;21.25;21.25;;;;;13.56;53.83;101381.88;2092437;28;48208;-49
2021/10/25 01:38:08;;;;;;;;;25.00;23.00;;;;;13.59;54.10;101383.56;2092402;28;48384;-50
2021/10/25 01:39:09;;;;;;;;;23.00;22.25;;;;;13.58;54.09;101382.69;2085028;28;47266;-50
2021/10/25 01:40:11;;;;;;;;;23.75;22.25;;;;;13.58;53.93;101371.16;2092080;28;47299;-48
2021/10/25 01:41:11;;;;;;;;;21.20;20.60;;;;;13.57;54.00;101377.41;2091618;28;47175;-51
2021/10/25 01:42:12;;;;;;;;;20.25;20.25;;;;;13.57;54.16;101386.28;2092682;28;47349;-48
2021/10/25 01:43:12;;;;;;;;;21.25;21.25;;;;;13.55;54.01;101377.44;2094115;28;46990;-48
2021/10/25 01:44:14;;;;;;;;;22.75;22.50;;;;;13.55;53.86;101374.78;2088732;28;47314;-49
2021/10/25 01:45:15;;;;;;;;;19.40;19.00;;;;;13.55;54.08;101372.13;2093471;28;48595;-47
2021/10/25 01:46:15;;;;;;;;;23.00;21.20;;;;;13.54;53.99;101371.25;2085149;28;48475;-48
2021/10/25 01:47:16;;;;;;;;;23.00;21.00;;;;;13.54;53.96;101371.25;2083225;28;47236;-48
2021/10/25 01:48:16;;;;;;;;;22.75;21.00;;;;;13.54;53.72;101370.38;2092439;28;47844;-49
2021/10/25 01:49:17;;;;;;;;;21.75;20.00;;;;;13.53;53.69;101373.94;2092278;28;48533;-48
2021/10/25 01:50:17;;;;;;;;;25.50;21.25;;;;;13.53;53.92;101373.94;2092336;28;48028;-50
2021/10/25 01:51:18;;;;;;;;;24.25;21.25;;;;;13.53;53.95;101376.63;2079088;28;48156;-48
2021/10/25 01:52:18;;;;;;;;;22.75;20.50;;;;;13.53;54.29;101377.50;2082691;28;48230;-47
2021/10/25 01:53:19;;;;;;;;;19.50;19.50;;;;;13.54;53.95;101375.69;2083933;28;47120;-47
2021/10/25 01:54:20;;;;;;;;;20.00;20.00;;;;;13.55;53.79;101380.13;2084099;28;47166;-46
2021/10/25 01:55:21;;;;;;;;;20.40;20.40;;;;;13.54;53.88;101376.56;2084084;28;46323;-47
2021/10/25 01:56:21;;;;;;;;;19.40;19.40;;;;;13.56;54.06;101373.88;2084050;28;47421;-49
2021/10/25 01:57:22;;;;;;;;;22.25;20.75;;;;;13.56;54.00;101373.88;2084127;28;45566;-47
2021/10/25 01:58:22;;;;;;;;;23.00;23.00;;;;;13.58;53.96;101380.03;2075288;28;47238;-50
2021/10/25 01:59:23;;;;;;;;;19.00;19.00;;;;;13.59;53.83;101378.25;2081017;28;47197;-49
2021/10/25 02:00:24;;;;;;;;;21.50;18.75;;;;;13.59;53.74;101376.44;2091577;28;48414;-46
2021/10/25 02:01:24;;;;;;;;;22.00;22.00;;;;;13.59;53.74;101383.56;2083468;28;46845;-46
2021/10/25 02:02:25;;;;;;;;;20.75;19.50;;;;;13.59;53.81;101378.25;2078598;28;48249;-48
2021/10/25 02:03:25;;;;;;;;;22.50;21.75;;;;;13.59;53.97;101380.91;2074331;28;48410;-46
2021/10/25 02:04:28;;;;;;;;;22.50;22.50;;;;;13.59;53.92;101378.25;2085069;28;46490;-48
2021/10/25 02:05:28;;;;;;;;;20.40;20.40;;;;;13.59;53.75;101379.13;2094121;28;48314;-45
2021/10/25 02:06:29;;;;;;;;;23.00;23.00;;;;;13.60;54.13;101378.25;2083924;28;48230;-47
2021/10/25 02:07:29;;;;;;;;;18.00;18.00;;;;;13.61;54.02;101380.00;2083876;28;48297;-48
2021/10/25 02:08:30;;;;;;;;;20.50;20.50;;;;;13.61;53.73;101377.31;2083747;28;47360;-48
2021/10/25 02:09:30;;;;;;;;;25.75;23.50;;;;;13.62;53.80;101372.88;2083666;28;48195;-47
2021/10/25 02:10:31;;;;;;;;;20.75;20.75;;;;;13.62;53.88;101370.19;2088246;28;46203;-47
2021/10/25 02:11:32;;;;;;;;;19.00;18.75;;;;;13.62;53.62;101371.06;2092220;28;45328;-49
2021/10/25 02:12:33;;;;;;;;;26.00;23.25;;;;;13.63;53.72;101369.28;2084204;28;47470;-47
2021/10/25 02:13:33;;;;;;;;;23.25;23.25;;;;;13.63;53.80;101370.16;2077897;28;48243;-50
2021/10/25 02:14:34;;;;;;;;;24.25;23.00;;;;;13.64;53.71;101365.69;2075094;28;48401;-48
2021/10/25 02:15:34;;;;;;;;;23.75;21.50;;;;;13.64;53.82;101371.03;2068229;28;46795;-51
2021/10/25 02:16:35;;;;;;;;;22.00;20.50;;;;;13.65;53.82;101363.00;2076861;28;47410;-48
2021/10/25 02:17:36;;;;;;;;;22.00;22.00;;;;;13.65;54.06;101368.31;2089916;28;47098;-46
2021/10/25 02:18:37;;;;;;;;;20.20;20.00;;;;;13.66;53.98;101358.53;2084019;28;48357;-46
2021/10/25 02:19:39;;;;;;;;;21.80;21.20;;;;;13.66;53.78;101363.88;2083710;28;48119;-48
2021/10/25 02:20:40;;;;;;;;;22.20;22.20;;;;;13.67;53.68;101360.28;2084306;28;46083;-47
2021/10/25 02:21:41;;;;;;;;;21.40;21.40;;;;;13.67;53.89;101361.16;2083672;28;48432;-49
2021/10/25 02:22:42;;;;;;;;;19.20;18.40;;;;;13.68;53.67;101365.56;2090442;28;46995;-47
2021/10/25 02:23:42;;;;;;;;;18.75;18.00;;;;;13.68;53.73;101362.03;2084453;28;48483;-47
2021/10/25 02:24:44;;;;;;;;;26.00;21.75;;;;;13.68;53.76;101352.25;2084082;28;47497;-51
2021/10/25 02:25:45;;;;;;;;;17.60;17.60;;;;;13.69;53.66;101351.31;2083677;28;48353;-50
2021/10/25 02:26:46;;;;;;;;;21.80;21.80;;;;;13.70;53.64;101344.19;2083931;28;45424;-46
2021/10/25 02:27:46;;;;;;;;;22.00;20.00;;;;;13.70;53.80;101338.84;2083726;28;47203;-50
2021/10/25 02:28:47;;;;;;;;;19.00;19.00;;;;;13.71;53.62;101340.59;2083991;28;47586;-46
2021/10/25 02:29:47;;;;;;;;;22.25;19.00;;;;;13.71;53.54;101351.28;2083575;28;47445;-52
2021/10/25 02:30:49;;;;;;;;;16.25;16.00;;;;;13.70;53.45;101334.41;2075222;28;48027;-49
2021/10/25 02:31:50;;;;;;;;;19.40;19.40;;;;;13.72;53.38;101350.38;2074898;28;47201;-47
2021/10/25 02:32:51;;;;;;;;;20.25;17.75;;;;;13.70;53.39;101345.06;2083959;28;46158;-50
2021/10/25 02:33:51;;;;;;;;;18.25;18.25;;;;;13.71;53.29;101348.59;2083706;28;47217;-48
2021/10/25 02:34:52;;;;;;;;;16.75;16.75;;;;;13.72;53.24;101342.38;2080540;28;47273;-48
2021/10/25 02:35:53;;;;;;;;;19.50;19.00;;;;;13.72;53.35;101342.38;2082981;28;48268;-51
2021/10/25 02:36:53;;;;;;;;;21.00;20.75;;;;;13.71;53.28;101349.47;2092339;28;47279;-48
2021/10/25 02:37:56;;;;;;;;;18.50;16.50;;;;;13.72;53.43;101347.69;2091556;28;48134;-49
2021/10/25 02:38:56;;;;;;;;;18.80;18.80;;;;;13.72;53.45;101353.03;2092098;28;47443;-48
2021/10/25 02:39:57;;;;;;;;;17.50;17.50;;;;;13.72;53.54;101361.03;2091900;28;48309;-49
2021/10/25 02:40:58;;;;;;;;;23.75;18.50;;;;;13.72;53.26;101361.03;2092246;28;45553;-50
2021/10/25 02:41:59;;;;;;;;;19.40;19.40;;;;;13.72;53.25;101358.38;2091848;28;47986;-47
2021/10/25 02:43:00;;;;;;;;;21.00;18.60;;;;;13.73;53.32;101354.81;2091967;28;47176;-46
2021/10/25 02:44:00;;;;;;;;;18.60;18.60;;;;;13.71;53.15;101361.94;2085883;28;48033;-49
2021/10/25 02:45:01;;;;;;;;;17.50;17.50;;;;;13.71;53.31;101360.16;2092392;28;45762;-46
2021/10/25 02:46:02;;;;;;;;;17.25;17.25;;;;;13.72;53.45;101356.59;2091712;28;47128;-47
2021/10/25 02:47:03;;;;;;;;;19.80;18.20;;;;;13.72;53.36;101356.59;2091918;28;45279;-47
2021/10/25 02:48:05;;;;;;;;;24.80;22.00;;;;;13.72;53.40;101351.28;2091825;28;47358;-48
2021/10/25 02:49:05;;;;;;;;;22.00;22.00;;;;;13.72;53.47;101353.94;2092004;28;47593;-46
2021/10/25 02:50:06;;;;;;;;;19.75;19.50;;;;;13.74;53.51;101357.44;2091960;28;48690;-46
2021/10/25 02:51:07;;;;;;;;;13.75;13.25;;;;;13.75;53.60;101352.97;2091726;28;47996;-45
2021/10/25 02:52:07;;;;;;;;;23.25;21.00;;;;;13.75;53.46;101352.97;2092021;28;47445;-48
2021/10/25 02:53:09;;;;;;;;;19.50;19.50;;;;;13.76;53.82;101346.72;2082771;28;47982;-49
2021/10/25 02:54:10;;;;;;;;;22.60;21.40;;;;;13.76;53.69;101339.59;2083174;28;47356;-49
2021/10/25 02:55:11;;;;;;;;;20.40;18.80;;;;;13.77;53.59;101329.81;2081000;28;45551;-46
2021/10/25 02:56:12;;;;;;;;;21.25;20.75;;;;;13.78;53.46;101336.88;2083286;28;47138;-47
2021/10/25 02:57:14;;;;;;;;;20.75;20.75;;;;;13.78;53.34;101336.88;2091582;28;48407;-47
2021/10/25 02:58:16;;;;;;;;;19.80;19.00;;;;;13.78;53.43;101332.44;2092176;28;47427;-51
2021/10/25 02:59:16;;;;;;;;;21.00;19.60;;;;;13.81;53.85;101328.81;2082087;28;47351;-46
2021/10/25 03:00:17;;;;;;;;;20.50;20.50;;;;;13.79;53.80;101323.50;2074959;28;48242;-48
2021/10/25 03:01:17;;;;;;;;;18.80;17.80;;;;;13.82;53.75;101327.88;2090217;28;47705;-47
2021/10/25 03:02:19;;;;;;;;;21.00;21.00;;;;;13.82;53.72;101319.88;2082913;28;47207;-50
2021/10/25 03:03:20;;;;;;;;;22.80;19.60;;;;;13.82;53.83;101331.44;2082822;28;46198;-48
2021/10/25 03:04:20;;;;;;;;;20.50;20.25;;;;;13.83;53.71;101325.19;2092203;28;46601;-48
2021/10/25 03:05:21;;;;;;;;;18.00;18.00;;;;;13.83;53.56;101325.19;2084106;28;46216;-48
2021/10/25 03:06:21;;;;;;;;;17.75;17.75;;;;;13.83;53.43;101330.50;2091086;28;48030;-46
2021/10/25 03:07:22;;;;;;;;;18.25;18.25;;;;;13.82;53.42;101326.09;2091438;28;48258;-47
2021/10/25 03:08:22;;;;;;;;;20.75;19.25;;;;;13.83;53.58;101322.50;2091967;28;48685;-46
2021/10/25 03:09:23;;;;;;;;;17.25;16.50;;;;;13.83;53.58;101333.19;2091613;28;48297;-46
2021/10/25 03:10:23;;;;;;;;;15.25;15.25;;;;;13.83;53.57;101325.19;2089694;28;47179;-46
2021/10/25 03:11:24;;;;;;;;;24.75;20.00;;;;;13.84;53.52;101321.59;2082726;28;47019;-48
2021/10/25 03:12:26;;;;;;;;;19.50;19.50;;;;;13.86;53.43;101326.03;2074832;28;47289;-47
2021/10/25 03:13:27;;;;;;;;;19.00;17.80;;;;;13.87;53.18;101327.78;2070830;28;47463;-50
2021/10/25 03:14:27;;;;;;;;;21.00;20.00;;;;;13.87;53.23;101322.44;2083459;28;45321;-51
2021/10/25 03:15:28;;;;;;;;;19.00;18.75;;;;;13.89;53.60;101328.63;2091604;28;48062;-50
2021/10/25 03:16:29;;;;;;;;;18.50;17.75;;;;;13.89;53.61;101332.16;2092010;28;48203;-47
2021/10/25 03:17:29;;;;;;;;;20.00;18.75;;;;;13.90;53.37;101327.69;2090260;28;48315;-51
2021/10/25 03:18:30;;;;;;;;;18.00;17.75;;;;;13.91;53.42;101327.66;2077716;28;47279;-50
2021/10/25 03:19:30;;;;;;;;;20.50;16.25;;;;;13.91;53.44;101325.00;2082680;28;45613;-50
2021/10/25 03:20:31;;;;;;;;;18.00;17.50;;;;;13.92;53.54;101318.75;2082900;28;48252;-50
2021/10/25 03:21:32;;;;;;;;;19.25;18.00;;;;;13.93;53.58;101323.16;2082897;28;47064;-51
2021/10/25 03:22:32;;;;;;;;;19.00;17.50;;;;;13.94;53.34;101316.91;2086648;28;47166;-47
2021/10/25 03:23:34;;;;;;;;;16.50;16.25;;;;;13.94;53.32;101322.25;2087965;28;48226;-50
2021/10/25 03:24:36;;;;;;;;;21.80;20.80;;;;;13.96;53.13;101324.88;2091968;28;45279;-47
2021/10/25 03:25:36;;;;;;;;;17.20;17.00;;;;;13.95;53.43;101325.78;2082817;28;48284;-47
2021/10/25 03:26:37;;;;;;;;;18.50;18.50;;;;;13.96;53.28;101325.75;2082864;28;48627;-47
2021/10/25 03:27:38;;;;;;;;;21.50;19.50;;;;;13.97;53.33;101326.59;2091715;28;47290;-46
2021/10/25 03:28:39;;;;;;;;;19.00;16.40;;;;;13.96;53.13;101323.06;2090165;28;48537;-47
2021/10/25 03:29:39;;;;;;;;;15.75;15.75;;;;;13.98;53.06;101329.28;2091711;28;47282;-47
2021/10/25 03:30:40;;;;;;;;;18.00;17.50;;;;;13.98;53.16;101325.72;2091702;28;48411;-48
2021/10/25 03:31:41;;;;;;;;;18.50;18.50;;;;;13.98;53.33;101325.72;2082677;28;48263;-47
2021/10/25 03:32:41;;;;;;;;;19.50;18.75;;;;;13.97;53.20;101324.81;2084034;28;47973;-47
2021/10/25 03:33:42;;;;;;;;;19.50;19.50;;;;;13.99;53.37;101332.81;2082606;28;48211;-46
2021/10/25 03:34:42;;;;;;;;;20.00;18.50;;;;;13.99;53.30;101328.34;2083384;28;47103;-46
2021/10/25 03:35:43;;;;;;;;;19.50;19.50;;;;;14.00;53.25;101331.91;2082965;28;47037;-46
2021/10/25 03:36:45;;;;;;;;;18.50;18.00;;;;;14.01;53.24;101330.97;2082864;28;47318;-51
2021/10/25 03:37:46;;;;;;;;;18.80;18.80;;;;;14.01;53.28;101330.97;2091049;28;48943;-46
2021/10/25 03:38:47;;;;;;;;;20.50;20.50;;;;;14.00;53.06;101323.88;2091489;28;45401;-46
2021/10/25 03:39:50;;;;;;;;;20.00;19.20;;;;;14.00;53.28;101323.88;2091616;28;47480;-47
2021/10/25 03:40:53;;;;;;;;;20.60;20.40;;;;;14.00;53.35;101327.44;2091700;28;46903;-47
2021/10/25 03:41:56;;;;;;;;;16.60;16.60;;;;;14.00;53.13;101322.09;2091795;28;47535;-46
2021/10/25 03:42:57;;;;;;;;;18.00;16.00;;;;;14.02;53.51;101327.38;2081762;28;47105;-47
2021/10/25 03:44:10;;;;;;;;;20.20;20.20;;;;;14.02;53.58;101330.06;2074486;28;48335;-50
2021/10/25 03:46:39;;;;;;;;;18.80;17.20;;;;;14.02;53.57;101332.72;2087814;28;47702;-49
2021/10/25 03:47:39;;;;;;;;;16.40;16.40;;;;;14.01;53.67;101328.31;2085721;28;47227;-48
2021/10/25 03:50:42;;;;;;;;;20.00;20.00;;;;;14.00;53.64;101332.75;2076919;28;48664;-46
2021/10/25 03:51:44;;;;;;;;;17.40;16.00;;;;;14.01;53.71;101329.19;2082746;28;48323;-46
2021/10/25 03:56:31;;;;;;;;;20.20;19.20;;;;;13.99;53.86;101331.03;2091875;28;48390;-48
2021/10/25 04:27:28;;;;;;;;;14.20;14.00;;;;;13.91;56.07;101324.13;2091196;28;48289;-50
2021/10/25 04:28:31;;;;;;;;;13.80;13.80;;;;;13.91;56.05;101325.00;2096797;28;47353;-51
2021/10/25 04:29:32;;;;;;;;;12.60;11.40;;;;;13.92;56.09;101321.41;2082334;28;48583;-49
2021/10/25 04:30:34;;;;;;;;;16.25;15.50;;;;;13.92;56.56;101324.06;2082427;28;47560;-48
2021/10/25 04:31:34;;;;;;;;;16.60;16.40;;;;;13.92;56.82;101323.19;2090539;28;45291;-48
2021/10/25 04:32:35;;;;;;;;;18.50;16.75;;;;;13.91;56.61;101321.44;2088521;28;47082;-46
2021/10/25 04:33:35;;;;;;;;;15.00;15.00;;;;;13.92;56.54;101325.88;2086824;28;47006;-47
2021/10/25 04:34:36;;;;;;;;;16.75;14.25;;;;;13.92;56.88;101324.06;2083142;28;45338;-48
2021/10/25 04:35:36;;;;;;;;;17.25;17.25;;;;;13.93;56.69;101324.94;2081177;28;45953;-52
2021/10/25 04:36:37;;;;;;;;;16.50;14.50;;;;;13.92;56.77;101321.41;2082564;28;47446;-48
2021/10/25 04:37:38;;;;;;;;;13.75;13.75;;;;;13.92;57.00;101321.41;2091034;28;48218;-49
2021/10/25 04:38:38;;;;;;;;;14.50;13.00;;;;;13.93;57.05;101323.16;2091327;28;47125;-51
2021/10/25 04:39:38;;;;;;;;;16.25;16.25;;;;;13.93;57.21;101319.63;2090998;28;47553;-46
2021/10/25 04:40:39;;;;;;;;;12.25;12.25;;;;;13.93;57.25;101325.81;2091569;28;48098;-48
2021/10/25 04:41:40;;;;;;;;;15.00;15.00;;;;;13.93;57.48;101331.16;2091126;28;48384;-50
2021/10/25 04:42:40;;;;;;;;;14.50;13.25;;;;;13.93;57.36;101320.50;2091323;28;48306;-46
2021/10/25 04:43:44;;;;;;;;;17.00;16.00;;;;;13.93;57.59;101311.59;2084187;28;47192;-50
2021/10/25 04:44:45;;;;;;;;;15.00;14.60;;;;;13.93;57.60;101315.16;2090486;28;47584;-47
2021/10/25 04:45:46;;;;;;;;;15.20;13.00;;;;;13.93;57.67;101317.81;2091080;28;45137;-50
2021/10/25 04:46:47;;;;;;;;;15.80;15.80;;;;;13.93;57.78;101315.16;2088759;28;47154;-49
2021/10/25 04:47:51;;;;;;;;;15.00;14.00;;;;;13.94;57.77;101316.03;2090871;28;46390;-49
2021/10/25 04:48:52;;;;;;;;;16.80;15.60;;;;;13.92;57.58;101315.19;2091320;28;47304;-50
2021/10/25 04:49:52;;;;;;;;;13.50;13.50;;;;;13.92;58.05;101313.41;2090996;28;46052;-49
2021/10/25 04:50:53;;;;;;;;;14.25;14.25;;;;;13.92;58.22;101316.06;2093059;28;46209;-50
2021/10/25 04:51:53;;;;;;;;;14.25;13.75;;;;;13.91;58.11;101308.97;2092634;28;48418;-50
2021/10/25 04:52:55;;;;;;;;;16.00;14.50;;;;;13.92;58.02;101309.84;2092832;28;47122;-51
2021/10/25 04:53:56;;;;;;;;;14.00;13.60;;;;;13.91;58.16;101308.09;2092641;28;48452;-48
2021/10/25 04:54:56;;;;;;;;;15.20;15.20;;;;;13.91;58.38;101308.97;2092751;28;48355;-51
2021/10/25 04:55:57;;;;;;;;;15.75;14.25;;;;;13.90;58.42;101309.03;2092628;28;45260;-50
2021/10/25 04:56:58;;;;;;;;;13.25;13.00;;;;;13.88;58.32;101311.75;2092869;28;45647;-51
2021/10/25 04:57:58;;;;;;;;;15.50;15.00;;;;;13.88;58.23;101321.53;2092558;28;48449;-51
2021/10/25 04:58:59;;;;;;;;;15.50;15.00;;;;;13.86;58.50;101324.25;2092925;28;47361;-50
2021/10/25 05:00:00;;;;;;;;;16.25;16.25;;;;;13.84;58.32;101313.59;2092410;28;48125;-48
2021/10/25 05:01:00;;;;;;;;;13.60;13.60;;;;;13.85;58.57;101319.84;2085279;28;47257;-48
2021/10/25 05:02:02;;;;;;;;;15.50;15.50;;;;;13.84;58.90;101316.25;2082211;28;47073;-51
2021/10/25 05:03:03;;;;;;;;;12.80;12.80;;;;;13.84;58.72;101320.72;2082608;28;48446;-47
2021/10/25 05:04:04;;;;;;;;;17.40;15.80;;;;;13.83;58.80;101314.50;2084793;28;47097;-50
2021/10/25 05:05:05;;;;;;;;;16.00;16.00;;;;;13.83;58.97;101305.63;2099841;28;47394;-49
2021/10/25 05:06:07;;;;;;;;;13.80;13.80;;;;;13.83;58.65;101309.16;2083573;28;47264;-51
2021/10/25 05:07:07;;;;;;;;;15.60;14.60;;;;;13.82;59.04;101318.09;2074268;28;48254;-52
2021/10/25 05:08:08;;;;;;;;;16.25;13.25;;;;;13.82;59.14;101310.09;2076015;28;48260;-51
2021/10/25 05:09:08;;;;;;;;;14.00;14.00;;;;;13.81;59.22;101316.34;2083384;28;47373;-49
2021/10/25 05:10:09;;;;;;;;;15.00;15.00;;;;;13.81;59.24;101312.78;2083121;28;47235;-51
2021/10/25 05:11:09;;;;;;;;;16.25;14.00;;;;;13.80;59.21;101314.59;2088259;28;48203;-48
2021/10/25 05:12:13;;;;;;;;;18.00;18.00;;;;;13.81;58.86;101312.78;2087116;28;47596;-50
2021/10/25 05:13:13;;;;;;;;;17.20;16.60;;;;;13.80;59.13;101308.38;2086920;28;46514;-48
2021/10/25 05:14:14;;;;;;;;;18.00;16.00;;;;;13.80;59.28;101309.25;2084535;28;47357;-52